• Join FlightAware (Why Join?)
  • Login
  • US Flag 
10:36AM EST


 

Airport Tracker/Info


-or-


 

Live Flight TrackerFlight Track Log ✈ EJA837 ✈ 13-Jun-2013 ✈ KUNI - KCMH

Flight Track Log - Related Links

Times and Time Zones

All times are in EDT time to prevent confusion due to time zone crossing. See the EJA837 flight status page for this flight to view local times or setup timezone preferences in your user account.

Time Position Orientation Groundspeed Altitude Reporting Facility
EDT Latitude Longitude Course Direction KTS MPH feet Rate Location/Type
12:12PM 39.2628 -82.2481 14° North 174 200 4,100  Level Indianapolis Center
12:13PM 39.3153 -82.2211 22° Northeast 195 224 5,000 720 Climbing Indianapolis Center
12:14PM 39.7976 -81.9512 21° North  Level FlightAware Approximate
12:14PM 39.3778 -82.1883 22° Northeast 200 230 5,600  Level Indianapolis Center
12:15PM 39.9162 -81.8919 21° North  Level FlightAware Approximate
12:15PM 39.4206 -82.1700 18° North 220 253 5,900  Level Indianapolis Center
12:15PM 39.4403 -82.1669 North 222 255 6,000 660 Climbing Indianapolis Center
12:16PM 40.0324 -81.8256 26° Northeast  Level FlightAware Approximate
12:16PM 39.4847 -82.2147 320° Northwest 214 246 6,800  Level Indianapolis Center
12:16PM 39.4958 -82.2372 303° West 213 245 7,000 480 Climbing Indianapolis Center
12:17PM 39.5272 -82.2689 322° Northwest 211 243 7,300 540 Climbing Indianapolis Center
12:17PM 39.5492 -82.2886 325° Northwest 210 242 7,600 540 Climbing Indianapolis Center
12:18PM 39.5761 -82.3128 325° Northwest 211 243 7,900 180 Climbing Indianapolis Center
12:18PM 39.5964 -82.3342 321° Northwest 211 243 7,800 -600 Descending Indianapolis Center
12:19PM 39.6258 -82.3619 324° Northwest 223 257 7,300 -900 Descending Indianapolis Center
12:19PM 39.6475 -82.3853 320° Northwest 239 275 6,900 -1,020 Descending Indianapolis Center
12:20PM 39.6786 -82.4164 322° Northwest 239 275 6,300 -900 Descending Indianapolis Center
12:20PM 39.7028 -82.4400 323° Northwest 247 284 6,000 -900 Descending Indianapolis Center
12:21PM 39.7350 -82.4681 326° Northwest 244 281 5,400 -1,020 Descending Indianapolis Center
12:21PM 39.7636 -82.5033 317° Northwest 252 290 4,900 -900 Descending Indianapolis Center
12:22PM 39.7875 -82.5281 322° Northwest 249 287 4,500 -720 Descending Indianapolis Center
12:23PM 39.8228 -82.5586 326° Northwest 247 284 4,100 -540 Descending Indianapolis Center
12:23PM 39.8567 -82.5714 344° North 239 275 4,000 -120 Descending Indianapolis Center
12:24PM 39.9175 -82.5942 344° North 227 261 4,000  Level Indianapolis Center
12:25PM 39.9767 -82.5864 North 217 250 4,000  Level Indianapolis Center
12:25PM 39.9989 -82.5833 North 214 246 4,000  Level Indianapolis Center
12:26PM 40.0369 -82.5822 North 215 247 4,000  Level Indianapolis Center
12:27PM 40.0939 -82.5856 357° North 208 239 4,000  Level Indianapolis Center
12:28PM 40.1525 -82.5892 357° North 208 239 4,000  Level Indianapolis Center
12:29PM 40.2072 -82.5669 17° North 207 238 4,000 -60 Level Indianapolis Center
12:30PM 40.2447 -82.5792 346° North 201 231 3,900  Descending Indianapolis Center
12:31PM 40.1847 -82.5900 188° South 203 234 4,000  Climbing Indianapolis Center
12:32PM 40.1317 -82.5831 174° South 206 237 3,900  Descending Indianapolis Center
12:33PM 40.1522 -82.5428 56° Northeast 147 169 4,000  Climbing Indianapolis Center
12:34PM 40.1964 -82.5472 356° North 149 171 4,000  Level Indianapolis Center
12:35PM 40.2231 -82.5806 316° Northwest 164 189 4,000  Level Indianapolis Center
12:36PM 40.1742 -82.5919 190° South 201 231 4,000  Level Indianapolis Center
12:37PM 40.1244 -82.5678 160° South 207 238 4,000  Level Indianapolis Center
12:38PM 40.1564 -82.5433 30° Northeast 143 165 4,000  Level Indianapolis Center
12:39PM 40.1981 -82.5469 356° North 148 170 4,000  Level Indianapolis Center
12:41PM 40.2094 -82.5953 287° West 188 216 4,000  Level Indianapolis Center
12:42PM 40.1556 -82.5894 175° South 204 235 4,000  Level Indianapolis Center
12:43PM 40.1278 -82.5578 139° Southeast 198 228 4,000  Level Indianapolis Center
12:44PM 40.1681 -82.5497 North 164 189 4,000  Level Indianapolis Center
12:45PM 40.2100 -82.5544 355° North 153 176 4,000  Level Indianapolis Center
12:45PM 40.2011 -82.5972 255° West 199 229 4,000 -120 Level Indianapolis Center
12:46PM 40.1872 -82.5919 164° South 198 228 3,900  Descending Indianapolis Center
12:46PM 40.1431 -82.5881 176° South 221 254 4,000 60 Climbing Indianapolis Center
12:47PM 40.1289 -82.5800 157° South 211 243 4,000  Level Indianapolis Center
12:48PM 40.1472 -82.5386 60° Northeast 172 198 4,000  Level Indianapolis Center
12:49PM 40.1919 -82.5444 354° North 146 168 4,000  Level Indianapolis Center
12:50PM 40.2233 -82.5750 323° Northwest 172 198 4,000  Level Indianapolis Center
12:51PM 40.1764 -82.5906 194° South 208 239 4,000  Level Indianapolis Center
12:51PM 40.1350 -82.5844 174° South 220 253 4,000  Level Indianapolis Center
12:52PM 40.1233 -82.5672 132° Southeast 216 249 4,000  Level Indianapolis Center
12:52PM 40.1442 -82.5392 46° Northeast 156 180 4,000  Level Indianapolis Center
12:53PM 40.1575 -82.5408 355° North 171 197 4,000  Level Indianapolis Center
12:54PM 40.2003 -82.5453 355° North 150 173 4,000  Level Indianapolis Center
12:55PM 40.2139 -82.5931 290° West 195 224 4,000  Level Indianapolis Center
12:56PM 40.1575 -82.5897 177° South 220 253 4,000  Level Indianapolis Center
12:57PM 40.1006 -82.5672 163° South 214 246 4,000  Level Indianapolis Center
12:58PM 40.0394 -82.5592 174° South 207 238 4,000 -420 Level Indianapolis Center
12:59PM 39.9981 -82.5994 217° Southwest 194 223 3,200 -540 Descending Indianapolis Center
01:00PM 39.9881 -82.6556 257° West 158 182 3,000 -120 Descending Indianapolis Center
01:01PM 39.9894 -82.6992 272° West 153 176 3,000  Level Indianapolis Center
01:01PM 39.9911 -82.7150 278° West 165 190 3,000 -420 Level Indianapolis Center
01:02PM 39.9939 -82.7594 275° West 170 196 2,600 -780 Descending Indianapolis Center
01:02PM 39.9947 -82.7769 274° West 167 192 2,200 -900 Descending Indianapolis Center
01:03PM 39.9983 -82.8172 277° West 145 167 1,700 -720 Descending Indianapolis Center
01:03PM 39.9983 -82.8292 270° West 155 178 1,500 -660 Descending Indianapolis Center
01:04PM 40.0011 -82.8692 275° West 125 144 1,000 -420 Descending Indianapolis Center
01:04PM 40.0011 -82.8725 270° West 141 162 1,100 360 Climbing Indianapolis Center
01:06PM 39.9833 -82.8833 270° West  Level FlightAware Approximate
01:13PM 39.9980 -82.8920 270° West  Level Estimated
01:14PM 39.9980 -82.8920 270° West  Level Estimated
01:15PM 39.9980 -82.8920 270° West  Level Estimated
01:16PM 39.9980 -82.8920 270° West  Level Estimated
01:17PM 39.9980 -82.8920 270° West  Level Estimated
01:18PM 39.9980 -82.8920 270° West  Level Estimated
01:19PM 39.9980 -82.8920 270° West  Level Estimated
01:20PM 39.9980 -82.8920 270° West  Level Estimated